Time;durP1;ratioP1;P1;durP2;ratioP2;P2;SDS_P1;SDS_P2;PMS_P1;PMS_P2;Temp;Humidity;BMP_temperature;BMP_pressure;BME280_temperature;BME280_humidity;BME280_pressure;Samples;Min_cycle;Max_cycle;Signal;HPM_P1;HPM_P2
2022/11/18 00:00:50;;;;;;;27.83;15.40;;;1.20;99.90;;;;;;5044185;23;20248;-77
2022/11/18 00:03:18;;;;;;;41.63;15.67;;;1.20;99.90;;;;;;4991602;28;20837;-77
2022/11/18 00:05:53;;;;;;;22.43;15.33;;;1.20;99.90;;;;;;4995978;28;20229;-79
2022/11/18 00:08:20;;;;;;;29.97;15.77;;;1.20;99.90;;;;;;4996625;28;20955;-79
2022/11/18 00:10:46;;;;;;;49.47;16.60;;;1.10;99.90;;;;;;4993396;28;20222;-79
2022/11/18 00:16:02;;;;;;;62.97;16.77;;;1.10;99.90;;;;;;5002088;28;20220;-80
2022/11/18 00:18:29;;;;;;;24.93;14.97;;;1.10;99.90;;;;;;4992888;28;20229;-80
2022/11/18 00:21:00;;;;;;;51.93;17.00;;;1.10;99.90;;;;;;4996795;28;20245;-79
2022/11/18 00:23:30;;;;;;;49.40;16.93;;;1.10;99.90;;;;;;5004045;28;20232;-79
2022/11/18 00:26:01;;;;;;;54.93;17.33;;;1.10;99.90;;;;;;5012555;28;20597;-80
2022/11/18 00:28:30;;;;;;;24.03;15.67;;;1.10;99.90;;;;;;5010042;28;20225;-79
2022/11/18 00:31:01;;;;;;;25.40;15.37;;;1.10;99.90;;;;;;5017987;28;20240;-79
2022/11/18 00:33:28;;;;;;;44.13;17.20;;;1.10;99.90;;;;;;5002976;28;20230;-79
2022/11/18 00:35:55;;;;;;;25.27;16.57;;;1.10;99.90;;;;;;5006273;28;20233;-80
2022/11/18 00:38:21;;;;;;;78.60;19.30;;;1.10;99.90;;;;;;4995596;28;20311;-80
2022/11/18 00:40:48;;;;;;;107.87;20.20;;;1.00;99.90;;;;;;5000166;28;20231;-80
2022/11/18 00:43:14;;;;;;;38.10;16.97;;;1.10;99.90;;;;;;4997868;28;20232;-79
2022/11/18 00:45:44;;;;;;;40.33;16.53;;;1.00;99.90;;;;;;5006792;28;20409;-79
2022/11/18 00:48:10;;;;;;;24.47;16.53;;;1.00;99.90;;;;;;5005764;28;20221;-79
2022/11/18 00:50:37;;;;;;;25.07;15.83;;;1.10;99.90;;;;;;5005639;28;20237;-79
2022/11/18 00:53:03;;;;;;;34.93;17.83;;;1.00;99.90;;;;;;5000397;28;20228;-79
2022/11/18 00:55:30;;;;;;;100.60;19.87;;;1.00;99.90;;;;;;5003187;28;20224;-79
2022/11/18 00:57:57;;;;;;;52.87;17.53;;;1.00;99.90;;;;;;4999549;28;20236;-79
2022/11/18 01:00:23;;;;;;;31.77;17.63;;;1.00;99.90;;;;;;5003278;28;20323;-79
2022/11/18 01:02:52;;;;;;;37.80;17.50;;;1.00;99.90;;;;;;5005912;28;20317;-80
2022/11/18 01:05:21;;;;;;;27.43;16.43;;;1.00;99.90;;;;;;5003116;28;20832;-79
2022/11/18 01:07:48;;;;;;;27.57;17.93;;;1.00;99.90;;;;;;5002650;28;20317;-79
2022/11/18 01:10:15;;;;;;;32.77;17.73;;;1.00;99.90;;;;;;5007844;28;20226;-79
2022/11/18 01:15:26;;;;;;;31.50;17.80;;;1.00;99.90;;;;;;5000556;28;20269;-79
2022/11/18 01:17:54;;;;;;;91.67;20.37;;;1.00;99.90;;;;;;5005385;28;20236;-79
2022/11/18 01:20:20;;;;;;;35.20;17.13;;;1.00;99.90;;;;;;5000960;28;20238;-79
2022/11/18 01:22:47;;;;;;;24.77;17.30;;;1.00;99.90;;;;;;4992742;28;20233;-79
2022/11/18 01:25:14;;;;;;;31.17;16.83;;;1.00;99.90;;;;;;5002111;28;20232;-79
2022/11/18 01:27:40;;;;;;;33.63;18.47;;;0.90;99.90;;;;;;5001729;28;20233;-80
2022/11/18 01:30:08;;;;;;;47.47;18.47;;;0.90;99.90;;;;;;5002052;28;20466;-79
2022/11/18 01:32:35;;;;;;;28.47;17.20;;;0.90;99.90;;;;;;4997693;28;20236;-79
2022/11/18 01:35:03;;;;;;;55.97;19.50;;;0.90;99.90;;;;;;5000532;28;20220;-79
2022/11/18 01:37:30;;;;;;;62.87;19.70;;;0.90;99.90;;;;;;4995319;28;20223;-79
2022/11/18 01:39:56;;;;;;;35.77;18.73;;;0.90;99.90;;;;;;4993702;28;20218;-79
2022/11/18 01:42:23;;;;;;;47.47;19.17;;;0.90;99.90;;;;;;4999185;28;20224;-79
2022/11/18 01:44:59;;;;;;;27.37;18.37;;;0.90;99.90;;;;;;4994748;28;20418;-79
2022/11/18 01:47:30;;;;;;;35.13;19.53;;;0.90;99.90;;;;;;4997601;28;20220;-79
2022/11/18 01:49:58;;;;;;;43.53;18.63;;;0.90;99.90;;;;;;4993037;28;20254;-79
2022/11/18 01:52:27;;;;;;;30.50;17.90;;;0.90;99.90;;;;;;5000359;28;20235;-78
2022/11/18 01:54:57;;;;;;;33.70;17.70;;;0.90;99.90;;;;;;5003903;28;20229;-79
2022/11/18 01:57:26;;;;;;;35.53;17.93;;;0.90;99.90;;;;;;4999358;28;20240;-80
2022/11/18 01:59:57;;;;;;;28.17;18.17;;;0.90;99.90;;;;;;4994093;28;20260;-79
2022/11/18 02:02:24;;;;;;;63.03;20.30;;;0.90;99.90;;;;;;5000223;28;20232;-79
2022/11/18 02:04:55;;;;;;;29.47;18.90;;;0.90;99.90;;;;;;5001050;28;20773;-79
2022/11/18 02:07:22;;;;;;;35.37;17.93;;;0.90;99.90;;;;;;4999852;28;20224;-79
2022/11/18 02:09:51;;;;;;;50.17;19.23;;;0.90;99.90;;;;;;5002965;28;20221;-80
2022/11/18 02:12:19;;;;;;;44.10;18.37;;;0.90;99.90;;;;;;4995197;28;20226;-80
2022/11/18 02:14:47;;;;;;;27.87;17.97;;;0.90;99.90;;;;;;4994200;28;20304;-79
2022/11/18 02:17:23;;;;;;;37.47;18.93;;;0.90;99.90;;;;;;4993997;28;20205;-79
2022/11/18 02:20:22;;;;;;;45.87;18.33;;;0.90;99.90;;;;;;5002648;28;20228;-79
2022/11/18 02:23:20;;;;;;;61.30;19.03;;;0.90;99.90;;;;;;5001600;28;20221;-80
2022/11/18 02:26:04;;;;;;;27.67;17.77;;;0.90;99.90;;;;;;5001729;28;20800;-79
2022/11/18 02:28:37;;;;;;;24.73;16.03;;;0.90;99.90;;;;;;4998038;28;20229;-79
2022/11/18 02:31:11;;;;;;;37.83;17.87;;;0.90;99.90;;;;;;4992245;28;20217;-79
2022/11/18 02:33:44;;;;;;;81.70;19.77;;;0.80;99.90;;;;;;4999860;28;20231;-79
2022/11/18 02:36:17;;;;;;;33.87;17.37;;;0.90;99.90;;;;;;4994426;28;20293;-79
2022/11/18 02:38:48;;;;;;;55.73;18.13;;;0.90;99.90;;;;;;4998586;28;20226;-78
2022/11/18 02:41:18;;;;;;;31.87;17.53;;;0.90;99.90;;;;;;4995584;28;20252;-79
2022/11/18 02:43:47;;;;;;;26.40;17.20;;;0.90;99.90;;;;;;4994190;28;20701;-78
2022/11/18 02:46:20;;;;;;;32.07;17.23;;;0.90;99.90;;;;;;4998399;28;20221;-78
2022/11/18 02:48:50;;;;;;;24.37;17.27;;;0.90;99.90;;;;;;5000011;28;20233;-78
2022/11/18 02:51:19;;;;;;;77.30;20.37;;;0.90;99.90;;;;;;4997763;28;20233;-79
2022/11/18 02:53:47;;;;;;;44.13;18.03;;;0.90;99.90;;;;;;4987521;28;20314;-79
2022/11/18 02:56:16;;;;;;;36.53;17.60;;;0.90;99.90;;;;;;5001400;28;20803;-79
2022/11/18 02:58:43;;;;;;;45.30;16.77;;;0.90;99.90;;;;;;4996022;28;20225;-79
2022/11/18 03:01:19;;;;;;;85.87;19.57;;;0.90;99.90;;;;;;4999595;28;20882;-79
2022/11/18 03:03:46;;;;;;;21.80;15.53;;;0.90;99.90;;;;;;4993734;28;20236;-79
2022/11/18 03:06:24;;;;;;;42.90;16.13;;;0.90;99.90;;;;;;4996430;28;20681;-79
2022/11/18 03:08:54;;;;;;;21.20;15.07;;;0.90;99.90;;;;;;4999079;28;20229;-79
2022/11/18 03:11:24;;;;;;;25.37;15.40;;;0.90;99.90;;;;;;4998900;28;20363;-79
2022/11/18 03:14:06;;;;;;;22.40;15.07;;;0.90;99.90;;;;;;5001651;28;20587;-80
2022/11/18 03:16:38;;;;;;;21.10;15.37;;;0.80;99.90;;;;;;4999094;28;20232;-80
2022/11/18 03:19:09;;;;;;;31.03;15.90;;;0.80;99.90;;;;;;4998233;28;20227;-80
2022/11/18 03:21:39;;;;;;;42.33;15.43;;;0.80;99.90;;;;;;4997440;28;20232;-79
2022/11/18 03:24:13;;;;;;;21.83;15.23;;;0.80;99.90;;;;;;4996242;28;20766;-80
2022/11/18 03:26:45;;;;;;;26.27;15.27;;;0.80;99.90;;;;;;4997382;28;20818;-79
2022/11/18 03:29:17;;;;;;;19.73;15.50;;;0.80;99.90;;;;;;5000306;28;20719;-79
2022/11/18 03:31:49;;;;;;;32.23;16.30;;;0.80;99.90;;;;;;5003455;28;20239;-79
2022/11/18 03:34:22;;;;;;;29.97;15.70;;;0.80;99.90;;;;;;5000804;28;20416;-79
2022/11/18 03:36:53;;;;;;;32.33;15.97;;;0.80;99.90;;;;;;5000896;28;20222;-79
2022/11/18 03:39:22;;;;;;;19.00;14.20;;;0.80;99.90;;;;;;4999199;28;20229;-79
2022/11/18 03:41:53;;;;;;;30.17;15.73;;;0.80;99.90;;;;;;4999502;28;20230;-79
2022/11/18 03:44:23;;;;;;;25.00;15.60;;;0.80;99.90;;;;;;4997117;28;20308;-79
2022/11/18 03:46:56;;;;;;;47.80;16.37;;;0.80;99.90;;;;;;5002816;28;20879;-79
2022/11/18 03:49:29;;;;;;;28.97;15.50;;;0.80;99.90;;;;;;4999093;28;20701;-79
2022/11/18 03:52:01;;;;;;;23.70;14.63;;;0.80;99.90;;;;;;4998267;28;20226;-79
2022/11/18 03:54:33;;;;;;;22.30;15.63;;;0.80;99.90;;;;;;4999241;28;20252;-79
2022/11/18 03:57:08;;;;;;;26.07;15.83;;;0.80;99.90;;;;;;5003146;28;20232;-79
2022/11/18 03:59:40;;;;;;;70.07;17.93;;;0.80;99.90;;;;;;5015459;28;20315;-79
2022/11/18 04:02:13;;;;;;;21.40;15.60;;;0.80;99.90;;;;;;5003309;28;21394;-79
2022/11/18 04:04:40;;;;;;;28.73;16.43;;;0.80;99.90;;;;;;4999727;28;20769;-79
2022/11/18 04:07:13;;;;;;;21.40;15.50;;;0.80;99.90;;;;;;5003346;28;20231;-79
2022/11/18 04:09:44;;;;;;;21.13;15.90;;;0.80;99.90;;;;;;4992097;28;20836;-79
2022/11/18 04:12:14;;;;;;;22.63;16.63;;;0.80;99.90;;;;;;5012256;28;20925;-80
2022/11/18 04:14:44;;;;;;;21.77;16.63;;;0.80;99.90;;;;;;4997073;28;20224;-79
2022/11/18 04:17:14;;;;;;;19.50;15.40;;;0.80;99.90;;;;;;5002564;28;20252;-80
2022/11/18 04:19:41;;;;;;;28.23;16.20;;;0.80;99.90;;;;;;5008739;28;22156;-79
2022/11/18 04:22:09;;;;;;;23.03;16.60;;;0.80;99.90;;;;;;4999112;28;20239;-79
2022/11/18 04:24:36;;;;;;;63.00;18.80;;;0.80;99.90;;;;;;5003676;28;20227;-79
2022/11/18 04:27:04;;;;;;;26.33;16.73;;;0.80;99.90;;;;;;5002526;28;20240;-79
2022/11/18 04:29:31;;;;;;;57.13;18.27;;;0.80;99.90;;;;;;5012630;28;20234;-79
2022/11/18 04:31:58;;;;;;;22.33;16.00;;;0.80;99.90;;;;;;5004231;28;20240;-79
2022/11/18 04:34:27;;;;;;;29.43;17.20;;;0.80;99.90;;;;;;5001191;28;20235;-79
2022/11/18 04:36:53;;;;;;;28.20;17.00;;;0.70;99.90;;;;;;5005735;28;20212;-79
2022/11/18 04:39:20;;;;;;;22.73;16.90;;;0.70;99.90;;;;;;5007349;28;20222;-79
2022/11/18 04:41:56;;;;;;;22.50;16.17;;;0.70;99.90;;;;;;5005668;28;20234;-79
2022/11/18 04:44:24;;;;;;;30.17;17.10;;;0.70;99.90;;;;;;5011540;28;20596;-78
2022/11/18 04:46:51;;;;;;;32.77;17.57;;;0.70;99.90;;;;;;4999463;28;20237;-79
2022/11/18 04:49:17;;;;;;;26.63;17.53;;;0.80;99.90;;;;;;5000720;28;20232;-78
2022/11/18 04:51:46;;;;;;;25.53;18.03;;;0.70;99.90;;;;;;4996076;28;20263;-79
2022/11/18 04:54:14;;;;;;;23.63;17.63;;;0.80;99.90;;;;;;4999132;28;20221;-79
2022/11/18 04:56:41;;;;;;;23.47;17.53;;;0.70;99.90;;;;;;4997822;28;20688;-78
2022/11/18 04:59:09;;;;;;;27.00;18.23;;;0.80;99.90;;;;;;5002121;28;20229;-79
2022/11/18 05:01:36;;;;;;;22.00;17.17;;;0.70;99.90;;;;;;4986117;28;20707;-79
2022/11/18 05:04:04;;;;;;;27.20;17.73;;;0.70;99.90;;;;;;4994467;28;20216;-78
2022/11/18 05:06:31;;;;;;;23.97;17.90;;;0.70;99.90;;;;;;4998647;28;20233;-79
2022/11/18 05:09:01;;;;;;;25.40;17.83;;;0.80;99.90;;;;;;4994979;28;20474;-78
2022/11/18 05:14:12;;;;;;;26.40;18.57;;;0.80;99.90;;;;;;4998657;28;20213;-79
2022/11/18 05:16:39;;;;;;;26.50;17.03;;;0.80;99.90;;;;;;4997293;28;20230;-79
2022/11/18 05:19:06;;;;;;;25.80;18.93;;;0.80;99.90;;;;;;4999167;28;20224;-79
2022/11/18 05:21:33;;;;;;;26.07;19.00;;;0.80;99.90;;;;;;5000233;28;20229;-79
2022/11/18 05:24:02;;;;;;;24.50;18.10;;;0.80;99.90;;;;;;4997537;28;20228;-82
2022/11/18 05:26:29;;;;;;;27.67;18.00;;;0.80;99.90;;;;;;4993609;28;20236;-82
2022/11/18 05:28:56;;;;;;;62.40;20.47;;;0.80;99.90;;;;;;4999440;28;20270;-81
2022/11/18 05:31:23;;;;;;;24.53;17.67;;;0.80;99.90;;;;;;5006589;28;20379;-80
2022/11/18 05:33:49;;;;;;;53.13;20.70;;;0.80;99.90;;;;;;5002895;28;20245;-80
2022/11/18 05:36:18;;;;;;;128.80;24.17;;;0.70;99.90;;;;;;5001863;28;20228;-82
2022/11/18 05:38:46;;;;;;;26.27;18.87;;;0.70;99.90;;;;;;4999233;28;20265;-81
2022/11/18 05:43:09;;;;;;;31.40;22.40;;;0.70;99.90;;;;;;4999463;28;20225;-81
2022/11/18 05:44:01;;;;;;;33.97;18.43;;;0.70;99.90;;;;;;4994566;28;20228;-81
2022/11/18 05:46:28;;;;;;;97.30;23.57;;;0.70;99.90;;;;;;5000492;28;20309;-81
2022/11/18 05:48:55;;;;;;;66.93;20.43;;;0.70;99.90;;;;;;4999490;28;20351;-83
2022/11/18 05:51:22;;;;;;;46.20;21.10;;;0.80;99.90;;;;;;4991549;28;20240;-82
2022/11/18 05:53:52;;;;;;;47.00;19.60;;;0.70;99.90;;;;;;4999650;28;20729;-81
2022/11/18 05:56:26;;;;;;;44.00;20.10;;;0.70;99.90;;;;;;4998356;28;20688;-81
2022/11/18 05:58:52;;;;;;;31.90;18.93;;;0.70;99.90;;;;;;4998600;28;20395;-82
2022/11/18 06:01:24;;;;;;;32.13;19.30;;;0.70;99.90;;;;;;4999283;28;20322;-80
2022/11/18 06:03:51;;;;;;;26.47;18.93;;;0.70;99.90;;;;;;5005524;28;20231;-80
2022/11/18 06:06:21;;;;;;;99.60;21.93;;;0.70;99.90;;;;;;5002087;28;20256;-80
2022/11/18 06:08:54;;;;;;;43.63;20.13;;;0.80;99.90;;;;;;5016999;28;20224;-80
2022/11/18 06:11:22;;;;;;;28.07;18.70;;;0.70;99.90;;;;;;5008205;28;20309;-79
2022/11/18 06:13:53;;;;;;;43.07;20.40;;;0.70;99.90;;;;;;4999007;28;20282;-78
2022/11/18 06:16:24;;;;;;;32.60;18.47;;;0.70;99.90;;;;;;4993553;28;21197;-79
2022/11/18 06:18:52;;;;;;;111.77;22.90;;;0.70;99.90;;;;;;5000584;28;20225;-79
2022/11/18 06:21:19;;;;;;;78.07;21.47;;;0.70;99.90;;;;;;5001265;28;20234;-79
2022/11/18 06:23:46;;;;;;;81.07;22.60;;;0.70;99.90;;;;;;5010870;28;20238;-79
2022/11/18 06:26:15;;;;;;;27.60;18.90;;;0.70;99.90;;;;;;5001185;28;20228;-80
2022/11/18 06:28:45;;;;;;;42.43;19.67;;;0.70;99.90;;;;;;5004039;28;20224;-79
2022/11/18 06:31:12;;;;;;;37.70;19.20;;;0.60;99.90;;;;;;4996177;28;20232;-79
2022/11/18 06:33:39;;;;;;;67.17;21.77;;;0.60;99.90;;;;;;5003299;28;20303;-79
2022/11/18 06:36:06;;;;;;;28.67;18.63;;;0.60;99.90;;;;;;5003524;28;20218;-79
2022/11/18 06:38:33;;;;;;;48.23;21.03;;;0.60;99.90;;;;;;5002708;28;20221;-78
2022/11/18 06:41:01;;;;;;;37.90;19.10;;;0.60;99.90;;;;;;5010055;28;20316;-79
2022/11/18 06:43:40;;;;;;;36.97;20.87;;;0.60;99.90;;;;;;4997852;28;20225;-79
2022/11/18 06:48:55;;;;;;;38.80;19.67;;;0.60;99.90;;;;;;5002517;28;20646;-79
2022/11/18 06:51:22;;;;;;;29.53;20.37;;;0.60;99.90;;;;;;4998292;28;20329;-79
2022/11/18 06:53:49;;;;;;;31.20;20.23;;;0.60;99.90;;;;;;4996116;28;20594;-78
2022/11/18 06:56:18;;;;;;;27.90;19.73;;;0.60;99.90;;;;;;5003860;28;20222;-79
2022/11/18 06:58:45;;;;;;;33.23;19.40;;;0.60;99.90;;;;;;5008440;28;20233;-79
2022/11/18 07:01:15;;;;;;;33.20;20.83;;;0.60;99.90;;;;;;5000018;28;20232;-79
2022/11/18 07:03:43;;;;;;;33.83;19.93;;;0.60;99.90;;;;;;4995310;28;20230;-79
2022/11/18 07:06:11;;;;;;;27.63;19.27;;;0.60;99.90;;;;;;5001499;28;20716;-79
2022/11/18 07:08:39;;;;;;;33.17;19.83;;;0.60;99.90;;;;;;5006828;28;20220;-79
2022/11/18 07:11:09;;;;;;;35.30;20.00;;;0.60;99.90;;;;;;4999588;28;20768;-79
2022/11/18 07:13:36;;;;;;;27.57;18.80;;;0.60;99.90;;;;;;4999961;28;20241;-80
2022/11/18 07:16:05;;;;;;;35.13;20.47;;;0.60;99.90;;;;;;5004420;28;20231;-79
2022/11/18 07:18:34;;;;;;;37.47;19.10;;;0.60;99.90;;;;;;5001667;28;20227;-79
2022/11/18 07:21:05;;;;;;;26.83;18.50;;;0.60;99.90;;;;;;4998046;28;20230;-78
2022/11/18 07:23:33;;;;;;;25.53;18.17;;;0.60;99.90;;;;;;5001292;28;20255;-79
2022/11/18 07:26:00;;;;;;;29.67;18.57;;;0.60;99.90;;;;;;5003987;28;20252;-81
2022/11/18 07:28:28;;;;;;;29.10;18.03;;;0.60;99.90;;;;;;5010427;28;20252;-78
2022/11/18 07:31:01;;;;;;;26.00;17.37;;;0.60;99.90;;;;;;5007008;28;20281;-78
2022/11/18 07:33:27;;;;;;;23.30;17.10;;;0.60;99.90;;;;;;5003268;28;20228;-78
2022/11/18 07:35:55;;;;;;;21.60;15.63;;;0.50;99.90;;;;;;5012667;28;20213;-78
2022/11/18 07:38:22;;;;;;;21.17;15.10;;;0.50;99.90;;;;;;5006471;28;20315;-78
2022/11/18 07:40:49;;;;;;;20.70;14.90;;;0.50;99.90;;;;;;5000432;28;20229;-78
2022/11/18 07:43:15;;;;;;;20.53;14.77;;;0.50;99.90;;;;;;5008839;28;20229;-78
2022/11/18 07:45:42;;;;;;;18.50;14.23;;;0.50;99.90;;;;;;5007741;28;20823;-78
2022/11/18 07:48:09;;;;;;;21.47;14.83;;;0.50;99.90;;;;;;5010563;28;20230;-78
2022/11/18 07:50:35;;;;;;;22.83;15.23;;;0.50;99.90;;;;;;5024338;28;20222;-78
2022/11/18 07:53:06;;;;;;;20.27;14.60;;;0.50;99.90;;;;;;4996319;28;20234;-78
2022/11/18 07:55:32;;;;;;;19.97;14.47;;;0.50;99.90;;;;;;5011253;28;20232;-78
2022/11/18 07:57:59;;;;;;;19.00;15.07;;;0.50;99.90;;;;;;5005817;28;20252;-78
2022/11/18 08:00:26;;;;;;;20.03;14.60;;;0.50;99.90;;;;;;5007816;28;20226;-77
2022/11/18 08:02:52;;;;;;;19.03;14.50;;;0.50;99.90;;;;;;5016489;28;20233;-78
2022/11/18 08:05:19;;;;;;;20.53;15.17;;;0.40;99.90;;;;;;5018598;28;20236;-78
2022/11/18 08:07:49;;;;;;;20.37;14.53;;;0.50;99.90;;;;;;5015263;28;20233;-79
2022/11/18 08:10:17;;;;;;;19.87;14.47;;;0.50;99.90;;;;;;5017410;28;20248;-79
2022/11/18 08:12:44;;;;;;;19.47;13.97;;;0.50;99.90;;;;;;5012083;28;20263;-78
2022/11/18 08:15:11;;;;;;;18.87;14.80;;;0.50;99.90;;;;;;5013069;28;20764;-78
2022/11/18 08:17:39;;;;;;;20.07;14.17;;;0.50;99.90;;;;;;5016904;28;20729;-78
2022/11/18 08:20:07;;;;;;;22.00;15.13;;;0.50;99.90;;;;;;5016311;28;20777;-78
2022/11/18 08:22:33;;;;;;;20.60;14.17;;;0.60;99.90;;;;;;5003996;28;20400;-78
2022/11/18 08:25:00;;;;;;;20.00;14.07;;;0.60;99.90;;;;;;5017264;28;20218;-79
2022/11/18 08:27:28;;;;;;;18.67;14.73;;;0.60;99.90;;;;;;5012332;28;20232;-78
2022/11/18 08:29:55;;;;;;;22.93;15.70;;;0.60;99.90;;;;;;5011333;28;20250;-78
2022/11/18 08:32:21;;;;;;;18.17;13.73;;;0.60;99.90;;;;;;4995143;28;20777;-78
2022/11/18 08:34:48;;;;;;;21.43;15.03;;;0.60;99.90;;;;;;5007234;28;20226;-78
2022/11/18 08:37:15;;;;;;;21.67;14.03;;;0.70;99.90;;;;;;5010724;28;20209;-79
2022/11/18 08:39:41;;;;;;;21.53;14.57;;;0.70;99.90;;;;;;5005435;28;20236;-79
2022/11/18 08:42:09;;;;;;;20.17;15.00;;;0.70;99.90;;;;;;5011082;28;20219;-79
2022/11/18 08:44:37;;;;;;;20.47;14.73;;;0.70;99.90;;;;;;5008155;28;20232;-78
2022/11/18 08:47:04;;;;;;;20.70;14.60;;;0.70;99.90;;;;;;5014352;28;20231;-79
2022/11/18 08:49:30;;;;;;;21.43;15.13;;;0.70;99.90;;;;;;5014218;28;20235;-79
2022/11/18 08:51:57;;;;;;;19.63;13.77;;;0.70;99.90;;;;;;5008842;28;20322;-78
2022/11/18 08:54:24;;;;;;;19.43;14.33;;;0.70;99.90;;;;;;5008134;28;20239;-79
2022/11/18 08:56:50;;;;;;;19.70;14.27;;;0.70;99.90;;;;;;5004346;28;20953;-79
2022/11/18 08:59:17;;;;;;;17.00;13.07;;;0.80;99.90;;;;;;5009711;28;20229;-78
2022/11/18 09:01:45;;;;;;;20.10;13.63;;;0.80;99.90;;;;;;5011217;28;20315;-78
2022/11/18 09:04:12;;;;;;;18.37;13.97;;;0.80;99.90;;;;;;5012764;28;20234;-78
2022/11/18 09:06:39;;;;;;;19.43;13.77;;;0.80;99.90;;;;;;5020544;28;20618;-79
2022/11/18 09:09:07;;;;;;;18.60;12.83;;;0.80;99.90;;;;;;5008554;28;20225;-78
2022/11/18 09:11:34;;;;;;;16.17;12.73;;;0.80;99.90;;;;;;5014490;28;20653;-79
2022/11/18 09:14:01;;;;;;;14.67;11.77;;;0.80;99.90;;;;;;5013386;28;21050;-79
2022/11/18 09:16:30;;;;;;;19.63;12.40;;;0.90;99.90;;;;;;5015712;28;20296;-79
2022/11/18 09:18:59;;;;;;;16.07;12.43;;;0.90;99.90;;;;;;5020072;28;20239;-79
2022/11/18 09:21:26;;;;;;;15.87;11.77;;;0.90;99.90;;;;;;5011411;28;20236;-78
2022/11/18 09:23:53;;;;;;;16.33;12.57;;;1.00;99.90;;;;;;5012453;28;21052;-78
2022/11/18 09:26:22;;;;;;;17.10;12.87;;;1.00;99.90;;;;;;5009074;28;20233;-78
2022/11/18 09:28:49;;;;;;;16.47;12.50;;;1.00;99.90;;;;;;5015081;28;20712;-78
2022/11/18 09:31:17;;;;;;;17.83;12.23;;;1.00;99.90;;;;;;5014483;28;20232;-78
2022/11/18 09:33:44;;;;;;;15.87;11.07;;;1.10;99.90;;;;;;5010134;28;20240;-79
2022/11/18 09:36:14;;;;;;;15.20;10.53;;;1.10;99.90;;;;;;5014009;28;20217;-79
2022/11/18 09:38:41;;;;;;;14.67;10.50;;;1.20;99.90;;;;;;5014814;28;20280;-78
2022/11/18 09:41:25;;;;;;;14.30;11.27;;;1.20;99.90;;;;;;5023003;28;20754;-78
2022/11/18 09:44:05;;;;;;;15.83;11.07;;;1.20;99.90;;;;;;5013523;28;20222;-78
2022/11/18 09:46:41;;;;;;;13.47;9.97;;;1.20;99.90;;;;;;5017407;28;20264;-78
2022/11/18 09:49:15;;;;;;;14.27;10.53;;;1.30;99.90;;;;;;5007616;28;20302;-79
2022/11/18 09:51:46;;;;;;;12.67;9.50;;;1.30;99.90;;;;;;5014108;28;20294;-79
2022/11/18 09:54:20;;;;;;;14.43;10.63;;;1.30;99.90;;;;;;5018633;28;20595;-79
2022/11/18 09:56:48;;;;;;;14.27;10.07;;;1.30;99.90;;;;;;5020437;28;20327;-79
2022/11/18 09:59:17;;;;;;;13.50;10.10;;;1.30;99.90;;;;;;5007586;28;20232;-79
2022/11/18 10:01:44;;;;;;;13.80;9.90;;;1.40;99.90;;;;;;5010077;28;20225;-79
2022/11/18 10:04:15;;;;;;;14.07;10.33;;;1.40;99.90;;;;;;5014209;28;20295;-79
2022/11/18 10:06:44;;;;;;;14.50;10.60;;;1.40;99.90;;;;;;5012361;28;20224;-80
2022/11/18 10:09:25;;;;;;;11.33;8.83;;;1.40;99.90;;;;;;5006453;28;20699;-80
2022/11/18 10:12:09;;;;;;;11.07;8.97;;;1.40;99.90;;;;;;5012707;28;20265;-80
2022/11/18 10:14:52;;;;;;;11.87;8.90;;;1.50;99.90;;;;;;5010313;28;20221;-79
2022/11/18 10:17:32;;;;;;;11.93;8.77;;;1.50;99.90;;;;;;5009902;28;20228;-79
2022/11/18 10:20:17;;;;;;;11.77;8.80;;;1.50;99.90;;;;;;5008227;28;20227;-79
2022/11/18 10:22:51;;;;;;;11.23;8.37;;;1.50;99.90;;;;;;5008363;28;20224;-79
2022/11/18 10:25:19;;;;;;;9.60;8.00;;;1.50;99.90;;;;;;5003751;28;20723;-78
2022/11/18 10:27:48;;;;;;;11.43;8.87;;;1.50;99.90;;;;;;5013151;28;20237;-79
2022/11/18 10:30:17;;;;;;;10.07;7.60;;;1.50;99.90;;;;;;5011048;28;20260;-79
2022/11/18 10:32:54;;;;;;;10.87;8.30;;;1.50;99.90;;;;;;5017906;28;20225;-80
2022/11/18 10:35:25;;;;;;;9.57;7.73;;;1.50;99.90;;;;;;5003509;28;20588;-79
2022/11/18 10:38:05;;;;;;;9.53;7.23;;;1.50;99.90;;;;;;5019328;28;20690;-79
2022/11/18 10:40:33;;;;;;;8.93;6.97;;;1.50;99.90;;;;;;5000499;28;20217;-79
2022/11/18 10:43:00;;;;;;;9.23;7.03;;;1.60;99.90;;;;;;5005615;28;20224;-79
2022/11/18 10:45:29;;;;;;;8.97;6.93;;;1.60;99.90;;;;;;5003778;28;20229;-79
2022/11/18 10:48:10;;;;;;;9.00;6.30;;;1.60;99.90;;;;;;5006608;28;20694;-80
2022/11/18 10:50:39;;;;;;;9.73;6.70;;;1.50;99.90;;;;;;5008117;28;20234;-81
2022/11/18 10:53:30;;;;;;;8.87;6.27;;;1.50;99.90;;;;;;5012992;28;20284;-80
2022/11/18 10:55:59;;;;;;;9.40;6.93;;;1.50;99.90;;;;;;5009420;28;20742;-80
2022/11/18 10:58:26;;;;;;;7.53;6.23;;;1.50;99.90;;;;;;5009900;28;20610;-79
2022/11/18 11:01:03;;;;;;;7.47;6.03;;;1.50;99.90;;;;;;5011444;28;20225;-80
2022/11/18 11:03:36;;;;;;;7.80;6.20;;;1.50;99.90;;;;;;5005522;28;20231;-80
2022/11/18 11:06:23;;;;;;;8.30;6.60;;;1.50;99.90;;;;;;5008905;28;20882;-80
2022/11/18 11:08:53;;;;;;;9.63;6.87;;;1.50;99.90;;;;;;5010562;28;20239;-79
2022/11/18 11:11:25;;;;;;;10.07;6.90;;;1.50;99.90;;;;;;5006736;28;20253;-80
2022/11/18 11:13:55;;;;;;;9.30;6.90;;;1.50;99.90;;;;;;5011209;28;20245;-80
2022/11/18 11:16:26;;;;;;;9.00;6.30;;;1.50;99.90;;;;;;5014909;28;20562;-80
2022/11/18 11:18:59;;;;;;;9.30;6.27;;;1.40;99.90;;;;;;5007553;28;20288;-80
2022/11/18 11:21:28;;;;;;;9.37;6.83;;;1.50;99.90;;;;;;5013554;28;20248;-80
2022/11/18 11:23:57;;;;;;;9.80;6.87;;;1.40;99.90;;;;;;5006986;28;20250;-80
2022/11/18 11:26:33;;;;;;;8.53;6.57;;;1.40;99.90;;;;;;5006358;28;20320;-80
2022/11/18 11:29:06;;;;;;;10.57;7.17;;;1.40;99.90;;;;;;5011236;28;20229;-80
2022/11/18 11:31:43;;;;;;;12.07;7.40;;;1.40;99.90;;;;;;5002270;28;20240;-80
2022/11/18 11:34:23;;;;;;;10.03;7.03;;;1.50;99.90;;;;;;5002155;28;20793;-80
2022/11/18 11:36:55;;;;;;;12.00;8.10;;;1.50;99.90;;;;;;5009479;28;20232;-81
2022/11/18 11:40:06;;;;;;;9.83;7.30;;;1.50;99.90;;;;;;5020558;28;20225;-80
2022/11/18 11:42:43;;;;;;;10.60;6.83;;;1.50;99.90;;;;;;4979263;28;20233;-80
2022/11/18 11:45:21;;;;;;;10.50;6.97;;;1.60;99.90;;;;;;4999325;28;20243;-81
2022/11/18 11:48:09;;;;;;;11.77;7.43;;;1.60;99.90;;;;;;5011872;28;20222;-80
2022/11/18 11:50:53;;;;;;;9.37;6.87;;;1.60;99.90;;;;;;5014073;28;20315;-81
2022/11/18 11:53:44;;;;;;;10.90;7.37;;;1.60;99.90;;;;;;5017945;28;20224;-80
2022/11/18 11:56:18;;;;;;;11.90;6.80;;;1.70;99.90;;;;;;5015605;28;20252;-80
2022/11/18 11:59:05;;;;;;;11.13;7.43;;;1.70;99.90;;;;;;5020404;28;20222;-80
2022/11/18 12:01:37;;;;;;;11.27;6.90;;;1.70;99.90;;;;;;5010722;28;20232;-78
2022/11/18 12:04:18;;;;;;;10.63;7.30;;;1.80;99.90;;;;;;4996766;28;20671;-78
2022/11/18 12:06:48;;;;;;;12.13;7.07;;;1.80;99.90;;;;;;5007505;28;20229;-78
2022/11/18 12:09:21;;;;;;;10.07;6.47;;;1.90;99.90;;;;;;5011054;28;20231;-79
2022/11/18 12:11:55;;;;;;;9.67;7.13;;;1.90;99.90;;;;;;5014357;28;20238;-77
2022/11/18 12:14:35;;;;;;;10.40;6.97;;;1.90;99.90;;;;;;5014456;28;20223;-78
2022/11/18 12:17:10;;;;;;;10.40;7.60;;;2.00;99.90;;;;;;5009289;28;20311;-79
2022/11/18 12:19:39;;;;;;;10.13;6.97;;;2.00;99.90;;;;;;5024631;28;20235;-78
2022/11/18 12:22:05;;;;;;;10.90;6.67;;;2.00;99.90;;;;;;5027651;28;20256;-78
2022/11/18 12:24:35;;;;;;;9.27;6.33;;;2.00;99.90;;;;;;5013574;28;20801;-78
2022/11/18 12:27:06;;;;;;;9.97;6.67;;;2.00;99.90;;;;;;5027670;28;20306;-79
2022/11/18 12:29:42;;;;;;;9.23;6.13;;;2.00;99.90;;;;;;5005778;28;20598;-78
2022/11/18 12:32:33;;;;;;;8.80;6.43;;;2.00;99.90;;;;;;5011839;28;20225;-78
2022/11/18 12:35:21;;;;;;;10.63;6.30;;;2.00;99.90;;;;;;5004066;28;20217;-78
2022/11/18 12:37:59;;;;;;;10.40;5.93;;;2.00;99.90;;;;;;5001741;28;20252;-78
2022/11/18 12:40:41;;;;;;;9.07;5.93;;;2.10;99.90;;;;;;5012327;28;20244;-78
2022/11/18 12:44:02;;;;;;;10.30;5.50;;;2.10;99.90;;;;;;5017158;28;20262;-78
2022/11/18 12:46:53;;;;;;;8.20;5.80;;;2.00;99.90;;;;;;5004549;28;20225;-78
2022/11/18 12:50:11;;;;;;;8.73;5.20;;;2.10;99.90;;;;;;5001747;28;20230;-79
2022/11/18 12:52:52;;;;;;;8.03;5.43;;;2.10;99.90;;;;;;4992608;28;20787;-79
2022/11/18 12:55:26;;;;;;;8.93;5.20;;;2.10;99.90;;;;;;5005010;28;20234;-78
2022/11/18 12:57:53;;;;;;;7.30;5.57;;;2.00;99.90;;;;;;5015580;28;20218;-80
2022/11/18 13:00:50;;;;;;;8.73;5.07;;;2.00;99.90;;;;;;4998656;28;20690;-79
2022/11/18 13:03:29;;;;;;;8.20;4.53;;;2.00;99.90;;;;;;4996793;28;20318;-78
2022/11/18 13:06:05;;;;;;;7.00;4.23;;;1.90;99.90;;;;;;5002274;28;20229;-78
2022/11/18 13:08:32;;;;;;;8.03;4.67;;;1.90;99.90;;;;;;5000740;28;20704;-77
2022/11/18 13:17:50;;;;;;;7.67;4.30;;;1.80;99.90;;;;;;4995927;28;20341;-77